sensor_id;sensor_type;location;lat;lon;timestamp;pressure;altitude;pressure_sealevel;temperature;humidity
29239;BME280;16267;48.194;11.546;2023-08-01T00:00:31;95199.75;;;20.37;63.18
29239;BME280;16267;48.194;11.546;2023-08-01T00:02:58;95197.03;;;20.37;62.98
29239;BME280;16267;48.194;11.546;2023-08-01T00:05:24;95192.03;;;20.36;62.73
29239;BME280;16267;48.194;11.546;2023-08-01T00:07:50;95188.56;;;20.35;62.25
29239;BME280;16267;48.194;11.546;2023-08-01T00:10:16;95182.38;;;20.35;62.40
29239;BME280;16267;48.194;11.546;2023-08-01T00:12:42;95181.13;;;20.36;62.05
29239;BME280;16267;48.194;11.546;2023-08-01T00:15:08;95172.22;;;20.35;61.73
29239;BME280;16267;48.194;11.546;2023-08-01T00:17:34;95171.47;;;20.35;61.86
29239;BME280;16267;48.194;11.546;2023-08-01T00:20:02;95163.78;;;20.33;61.90
29239;BME280;16267;48.194;11.546;2023-08-01T00:22:28;95170.47;;;20.32;61.88
29239;BME280;16267;48.194;11.546;2023-08-01T00:24:54;95164.28;;;20.32;62.02
29239;BME280;16267;48.194;11.546;2023-08-01T00:27:20;95154.59;;;20.31;62.02
29239;BME280;16267;48.194;11.546;2023-08-01T00:29:46;95151.88;;;20.31;61.56
29239;BME280;16267;48.194;11.546;2023-08-01T00:32:12;95146.41;;;20.31;61.54
29239;BME280;16267;48.194;11.546;2023-08-01T00:34:38;95146.41;;;20.31;61.36
29239;BME280;16267;48.194;11.546;2023-08-01T00:37:04;95151.13;;;20.30;61.25
29239;BME280;16267;48.194;11.546;2023-08-01T00:39:30;95142.22;;;20.30;61.16
29239;BME280;16267;48.194;11.546;2023-08-01T00:41:56;95130.56;;;20.29;61.14
29239;BME280;16267;48.194;11.546;2023-08-01T00:44:22;95128.31;;;20.27;61.20
29239;BME280;16267;48.194;11.546;2023-08-01T00:46:48;95121.66;;;20.28;61.00
29239;BME280;16267;48.194;11.546;2023-08-01T00:49:17;95120.88;;;20.28;60.77
29239;BME280;16267;48.194;11.546;2023-08-01T00:51:43;95107.75;;;20.26;60.74
29239;BME280;16267;48.194;11.546;2023-08-01T00:54:09;95104.28;;;20.26;60.70
29239;BME280;16267;48.194;11.546;2023-08-01T00:56:36;95098.06;;;20.25;60.79
29239;BME280;16267;48.194;11.546;2023-08-01T00:59:02;95107.00;;;20.26;61.04
29239;BME280;16267;48.194;11.546;2023-08-01T01:01:27;95100.78;;;20.25;60.52
29239;BME280;16267;48.194;11.546;2023-08-01T01:03:54;95093.13;;;20.24;60.69
29239;BME280;16267;48.194;11.546;2023-08-01T01:06:41;95098.56;;;20.24;60.55
29239;BME280;16267;48.194;11.546;2023-08-01T01:09:19;95089.16;;;20.25;60.89
29239;BME280;16267;48.194;11.546;2023-08-01T01:11:45;95093.13;;;20.24;60.86
29239;BME280;16267;48.194;11.546;2023-08-01T01:14:11;95088.88;;;20.23;60.94
29239;BME280;16267;48.194;11.546;2023-08-01T01:16:37;95084.22;;;20.23;61.01
29239;BME280;16267;48.194;11.546;2023-08-01T01:19:07;95076.50;;;20.22;60.85
29239;BME280;16267;48.194;11.546;2023-08-01T01:21:39;95065.59;;;20.22;60.69
29239;BME280;16267;48.194;11.546;2023-08-01T01:24:09;95060.91;;;20.22;60.99
29239;BME280;16267;48.194;11.546;2023-08-01T01:26:36;95055.94;;;20.21;61.08
29239;BME280;16267;48.194;11.546;2023-08-01T01:29:04;95065.34;;;20.20;61.11
29239;BME280;16267;48.194;11.546;2023-08-01T01:31:32;95065.34;;;20.20;61.21
29239;BME280;16267;48.194;11.546;2023-08-01T01:33:59;95066.13;;;20.20;61.34
29239;BME280;16267;48.194;11.546;2023-08-01T01:36:26;95050.97;;;20.19;61.59
29239;BME280;16267;48.194;11.546;2023-08-01T01:38:52;95058.41;;;20.19;61.53
29239;BME280;16267;48.194;11.546;2023-08-01T01:41:17;95061.13;;;20.19;61.66
29239;BME280;16267;48.194;11.546;2023-08-01T01:43:43;95060.41;;;20.18;62.01
29239;BME280;16267;48.194;11.546;2023-08-01T01:46:10;95056.94;;;20.18;62.56
29239;BME280;16267;48.194;11.546;2023-08-01T01:48:35;95053.94;;;20.16;63.34
29239;BME280;16267;48.194;11.546;2023-08-01T01:51:01;95046.25;;;20.14;64.33
29239;BME280;16267;48.194;11.546;2023-08-01T01:53:27;95042.03;;;20.13;64.65
29239;BME280;16267;48.194;11.546;2023-08-01T01:55:53;95031.38;;;20.10;65.21
29239;BME280;16267;48.194;11.546;2023-08-01T01:58:19;95027.88;;;20.09;65.01
29239;BME280;16267;48.194;11.546;2023-08-01T02:00:44;95023.66;;;20.08;65.52
29239;BME280;16267;48.194;11.546;2023-08-01T02:03:13;95015.00;;;20.04;66.49
29239;BME280;16267;48.194;11.546;2023-08-01T02:05:42;95004.84;;;20.04;66.06
29239;BME280;16267;48.194;11.546;2023-08-01T02:08:08;95010.28;;;20.04;66.07
29239;BME280;16267;48.194;11.546;2023-08-01T02:10:33;95001.09;;;20.02;66.83
29239;BME280;16267;48.194;11.546;2023-08-01T02:12:59;95009.00;;;20.00;66.88
29239;BME280;16267;48.194;11.546;2023-08-01T02:15:25;95000.09;;;19.99;66.84
29239;BME280;16267;48.194;11.546;2023-08-01T02:17:51;95002.09;;;19.99;66.57
29239;BME280;16267;48.194;11.546;2023-08-01T02:20:16;94986.47;;;19.99;66.73
29239;BME280;16267;48.194;11.546;2023-08-01T02:22:42;94991.19;;;19.99;66.85
29239;BME280;16267;48.194;11.546;2023-08-01T02:25:08;94982.28;;;19.98;67.01
29239;BME280;16267;48.194;11.546;2023-08-01T02:27:34;94986.94;;;19.98;67.48
29239;BME280;16267;48.194;11.546;2023-08-01T02:30:00;94980.75;;;19.97;67.25
29239;BME280;16267;48.194;11.546;2023-08-01T02:32:25;94981.50;;;19.98;68.01
29239;BME280;16267;48.194;11.546;2023-08-01T02:34:51;94979.28;;;19.96;67.76
29239;BME280;16267;48.194;11.546;2023-08-01T02:37:17;94981.28;;;19.96;68.54
29239;BME280;16267;48.194;11.546;2023-08-01T02:39:43;94981.28;;;19.96;68.15
29239;BME280;16267;48.194;11.546;2023-08-01T02:42:08;94980.25;;;19.93;68.64
29239;BME280;16267;48.194;11.546;2023-08-01T02:44:34;94975.56;;;19.94;68.96
29239;BME280;16267;48.194;11.546;2023-08-01T02:47:00;94977.53;;;19.93;68.52
29239;BME280;16267;48.194;11.546;2023-08-01T02:49:26;94970.59;;;19.92;68.52
29239;BME280;16267;48.194;11.546;2023-08-01T02:51:52;94976.78;;;19.93;69.23
29239;BME280;16267;48.194;11.546;2023-08-01T02:54:17;94980.72;;;19.92;69.88
29239;BME280;16267;48.194;11.546;2023-08-01T02:56:43;94980.00;;;19.91;70.13
29239;BME280;16267;48.194;11.546;2023-08-01T02:59:09;94985.44;;;19.91;69.30
29239;BME280;16267;48.194;11.546;2023-08-01T03:01:37;94985.44;;;19.91;69.54
29239;BME280;16267;48.194;11.546;2023-08-01T03:04:04;94990.88;;;19.91;69.36
29239;BME280;16267;48.194;11.546;2023-08-01T03:06:32;94992.13;;;19.90;69.34
29239;BME280;16267;48.194;11.546;2023-08-01T03:08:58;94999.53;;;19.90;69.61
29239;BME280;16267;48.194;11.546;2023-08-01T03:11:24;95004.97;;;19.90;69.10
29239;BME280;16267;48.194;11.546;2023-08-01T03:13:51;94994.09;;;19.90;69.86
29239;BME280;16267;48.194;11.546;2023-08-01T03:16:17;94992.59;;;19.89;69.86
29239;BME280;16267;48.194;11.546;2023-08-01T03:18:43;94990.63;;;19.89;70.04
29239;BME280;16267;48.194;11.546;2023-08-01T03:21:10;94991.13;;;19.88;70.43
29239;BME280;16267;48.194;11.546;2023-08-01T03:23:36;94996.75;;;19.84;73.79
29239;BME280;16267;48.194;11.546;2023-08-01T03:26:02;94991.09;;;19.82;73.58
29239;BME280;16267;48.194;11.546;2023-08-01T03:28:28;95000.47;;;19.81;73.27
29239;BME280;16267;48.194;11.546;2023-08-01T03:30:54;95001.69;;;19.80;73.54
29239;BME280;16267;48.194;11.546;2023-08-01T03:33:23;94995.25;;;19.77;73.96
29239;BME280;16267;48.194;11.546;2023-08-01T03:35:48;95003.16;;;19.75;74.77
29239;BME280;16267;48.194;11.546;2023-08-01T03:38:14;94997.47;;;19.73;74.31
29239;BME280;16267;48.194;11.546;2023-08-01T03:40:40;94997.47;;;19.73;73.62
29239;BME280;16267;48.194;11.546;2023-08-01T03:43:06;94999.41;;;19.73;72.89
29239;BME280;16267;48.194;11.546;2023-08-01T03:45:34;94997.47;;;19.73;73.75
29239;BME280;16267;48.194;11.546;2023-08-01T03:48:00;95001.88;;;19.71;75.03
29239;BME280;16267;48.194;11.546;2023-08-01T03:50:26;95015.69;;;19.67;77.55
29239;BME280;16267;48.194;11.546;2023-08-01T03:52:52;95014.22;;;19.66;78.81
29239;BME280;16267;48.194;11.546;2023-08-01T03:55:18;94990.94;;;19.65;77.32
29239;BME280;16267;48.194;11.546;2023-08-01T03:57:44;95010.75;;;19.66;76.50
29239;BME280;16267;48.194;11.546;2023-08-01T04:00:10;95014.41;;;19.63;78.68
29239;BME280;16267;48.194;11.546;2023-08-01T04:02:42;95017.59;;;19.61;77.71
29239;BME280;16267;48.194;11.546;2023-08-01T04:05:08;95027.00;;;19.60;79.35
29239;BME280;16267;48.194;11.546;2023-08-01T04:07:38;95034.44;;;19.59;80.30
29239;BME280;16267;48.194;11.546;2023-08-01T04:10:05;95027.97;;;19.57;81.61
29239;BME280;16267;48.194;11.546;2023-08-01T04:12:36;95033.63;;;19.53;83.64
29239;BME280;16267;48.194;11.546;2023-08-01T04:15:02;95034.59;;;19.50;82.87
29239;BME280;16267;48.194;11.546;2023-08-01T04:17:28;95036.56;;;19.50;82.91
29239;BME280;16267;48.194;11.546;2023-08-01T04:19:55;95038.28;;;19.47;84.04
29239;BME280;16267;48.194;11.546;2023-08-01T04:22:20;95034.53;;;19.45;84.26
29239;BME280;16267;48.194;11.546;2023-08-01T04:24:46;95030.34;;;19.44;84.01
29239;BME280;16267;48.194;11.546;2023-08-01T04:27:12;95026.38;;;19.45;82.67
29239;BME280;16267;48.194;11.546;2023-08-01T04:29:38;95028.09;;;19.42;83.34
29239;BME280;16267;48.194;11.546;2023-08-01T04:32:04;95021.44;;;19.43;82.39
29239;BME280;16267;48.194;11.546;2023-08-01T04:34:30;95027.63;;;19.44;81.81
29239;BME280;16267;48.194;11.546;2023-08-01T04:36:55;95023.88;;;19.41;83.64
29239;BME280;16267;48.194;11.546;2023-08-01T04:39:21;95022.41;;;19.40;84.17
29239;BME280;16267;48.194;11.546;2023-08-01T04:41:47;95012.44;;;19.37;84.83
29239;BME280;16267;48.194;11.546;2023-08-01T04:44:15;95005.53;;;19.36;84.88
29239;BME280;16267;48.194;11.546;2023-08-01T04:46:41;95011.47;;;19.34;85.20
29239;BME280;16267;48.194;11.546;2023-08-01T04:49:07;95005.47;;;19.30;86.18
29239;BME280;16267;48.194;11.546;2023-08-01T04:51:33;95006.97;;;19.31;85.31
29239;BME280;16267;48.194;11.546;2023-08-01T04:53:59;94997.31;;;19.30;85.08
29239;BME280;16267;48.194;11.546;2023-08-01T04:56:24;94996.81;;;19.26;85.99
29239;BME280;16267;48.194;11.546;2023-08-01T04:58:50;94998.00;;;19.25;86.30
29239;BME280;16267;48.194;11.546;2023-08-01T05:01:16;94989.09;;;19.25;86.90
29239;BME280;16267;48.194;11.546;2023-08-01T05:03:41;94989.84;;;19.25;86.29
29239;BME280;16267;48.194;11.546;2023-08-01T05:06:07;94979.72;;;19.26;85.90
29239;BME280;16267;48.194;11.546;2023-08-01T05:08:33;94961.91;;;19.25;86.36
29239;BME280;16267;48.194;11.546;2023-08-01T05:10:59;94972.78;;;19.25;86.25
29239;BME280;16267;48.194;11.546;2023-08-01T05:13:24;94970.53;;;19.23;87.62
29239;BME280;16267;48.194;11.546;2023-08-01T05:15:50;94975.97;;;19.23;86.91
29239;BME280;16267;48.194;11.546;2023-08-01T05:18:17;94967.06;;;19.23;86.36
29239;BME280;16267;48.194;11.546;2023-08-01T05:20:43;94955.72;;;19.24;86.06
29239;BME280;16267;48.194;11.546;2023-08-01T05:23:09;94963.88;;;19.24;87.03
29239;BME280;16267;48.194;11.546;2023-08-01T05:25:35;94947.56;;;19.24;86.53
29239;BME280;16267;48.194;11.546;2023-08-01T05:28:01;94943.59;;;19.25;85.91
29239;BME280;16267;48.194;11.546;2023-08-01T05:30:26;94949.78;;;19.26;85.51
29239;BME280;16267;48.194;11.546;2023-08-01T05:32:52;94942.41;;;19.26;85.91
29239;BME280;16267;48.194;11.546;2023-08-01T05:35:19;94953.75;;;19.25;86.33
29239;BME280;16267;48.194;11.546;2023-08-01T05:37:46;94966.09;;;19.26;85.44
29239;BME280;16267;48.194;11.546;2023-08-01T05:40:12;94968.09;;;19.25;86.51
29239;BME280;16267;48.194;11.546;2023-08-01T05:42:38;94962.13;;;19.21;88.08
29239;BME280;16267;48.194;11.546;2023-08-01T05:45:05;94975.69;;;19.15;88.12
29239;BME280;16267;48.194;11.546;2023-08-01T05:47:31;94970.97;;;19.16;88.15
29239;BME280;16267;48.194;11.546;2023-08-01T05:49:56;94969.00;;;19.16;88.10
29239;BME280;16267;48.194;11.546;2023-08-01T05:52:22;94968.25;;;19.16;88.87
29239;BME280;16267;48.194;11.546;2023-08-01T05:54:49;94962.50;;;19.08;89.82
29239;BME280;16267;48.194;11.546;2023-08-01T05:57:15;94950.13;;;19.07;89.71
29239;BME280;16267;48.194;11.546;2023-08-01T05:59:41;94955.53;;;19.02;90.09
29239;BME280;16267;48.194;11.546;2023-08-01T06:02:07;94961.22;;;19.04;91.52
29239;BME280;16267;48.194;11.546;2023-08-01T06:04:33;94968.63;;;19.03;91.52
29239;BME280;16267;48.194;11.546;2023-08-01T06:06:59;94962.22;;;19.06;90.21
29239;BME280;16267;48.194;11.546;2023-08-01T06:09:25;94954.34;;;19.08;89.42
29239;BME280;16267;48.194;11.546;2023-08-01T06:11:51;94950.09;;;19.02;90.54
29239;BME280;16267;48.194;11.546;2023-08-01T06:14:20;94941.66;;;19.00;91.82
29239;BME280;16267;48.194;11.546;2023-08-01T06:16:46;94947.78;;;18.94;92.57
29239;BME280;16267;48.194;11.546;2023-08-01T06:19:11;94940.59;;;18.91;92.10
29239;BME280;16267;48.194;11.546;2023-08-01T06:21:37;94938.03;;;18.82;91.76
29239;BME280;16267;48.194;11.546;2023-08-01T06:24:03;94931.66;;;18.85;91.71
29239;BME280;16267;48.194;11.546;2023-08-01T06:26:29;94925.66;;;18.81;90.63
29239;BME280;16267;48.194;11.546;2023-08-01T06:28:55;94927.78;;;18.71;91.64
29239;BME280;16267;48.194;11.546;2023-08-01T06:31:21;94914.25;;;18.77;91.40
29239;BME280;16267;48.194;11.546;2023-08-01T06:33:47;94900.72;;;18.83;90.94
29239;BME280;16267;48.194;11.546;2023-08-01T06:36:12;94895.06;;;18.86;90.69
29239;BME280;16267;48.194;11.546;2023-08-01T06:38:39;94881.91;;;18.79;90.17
29239;BME280;16267;48.194;11.546;2023-08-01T06:41:05;94875.47;;;18.77;89.88
29239;BME280;16267;48.194;11.546;2023-08-01T06:43:30;94866.13;;;18.83;90.13
29239;BME280;16267;48.194;11.546;2023-08-01T06:45:56;94871.28;;;18.81;89.32
29239;BME280;16267;48.194;11.546;2023-08-01T06:48:22;94875.72;;;18.79;88.86
29239;BME280;16267;48.194;11.546;2023-08-01T06:50:48;94858.81;;;18.69;86.19
29239;BME280;16267;48.194;11.546;2023-08-01T06:53:13;94851.00;;;18.77;87.97
29239;BME280;16267;48.194;11.546;2023-08-01T06:55:39;94845.00;;;18.72;86.72
29239;BME280;16267;48.194;11.546;2023-08-01T06:58:06;94838.34;;;18.73;87.31
29239;BME280;16267;48.194;11.546;2023-08-01T07:00:31;94834.53;;;18.60;82.96
29239;BME280;16267;48.194;11.546;2023-08-01T07:02:57;94823.81;;;18.50;82.25
29239;BME280;16267;48.194;11.546;2023-08-01T07:05:23;94833.13;;;18.44;81.64
29239;BME280;16267;48.194;11.546;2023-08-01T07:07:49;94833.19;;;18.49;81.94
29239;BME280;16267;48.194;11.546;2023-08-01T07:10:15;94828.28;;;18.54;83.10
29239;BME280;16267;48.194;11.546;2023-08-01T07:12:40;94823.34;;;18.52;82.15
29239;BME280;16267;48.194;11.546;2023-08-01T07:15:07;94815.56;;;18.39;81.72
29239;BME280;16267;48.194;11.546;2023-08-01T07:17:33;94821.09;;;18.50;81.92
29239;BME280;16267;48.194;11.546;2023-08-01T07:19:59;94813.72;;;18.57;83.60
29239;BME280;16267;48.194;11.546;2023-08-01T07:22:24;94822.09;;;18.53;81.54
29239;BME280;16267;48.194;11.546;2023-08-01T07:24:54;94822.38;;;18.55;81.43
29239;BME280;16267;48.194;11.546;2023-08-01T07:27:21;94833.56;;;18.63;82.80
29239;BME280;16267;48.194;11.546;2023-08-01T07:29:47;94822.47;;;18.66;82.55
29239;BME280;16267;48.194;11.546;2023-08-01T07:32:14;94823.75;;;18.71;82.66
29239;BME280;16267;48.194;11.546;2023-08-01T07:34:39;94806.94;;;18.72;82.23
29239;BME280;16267;48.194;11.546;2023-08-01T07:37:05;94824.97;;;18.70;81.26
29239;BME280;16267;48.194;11.546;2023-08-01T07:39:31;94813.34;;;18.69;81.18
29239;BME280;16267;48.194;11.546;2023-08-01T07:41:57;94789.53;;;18.59;77.24
29239;BME280;16267;48.194;11.546;2023-08-01T07:44:23;94781.66;;;18.61;80.68
29239;BME280;16267;48.194;11.546;2023-08-01T07:46:48;94805.38;;;18.60;77.76
29239;BME280;16267;48.194;11.546;2023-08-01T07:49:14;94806.84;;;18.61;77.90
29239;BME280;16267;48.194;11.546;2023-08-01T07:51:40;94794.34;;;18.69;78.99
29239;BME280;16267;48.194;11.546;2023-08-01T07:54:05;94806.78;;;18.76;77.95
29239;BME280;16267;48.194;11.546;2023-08-01T07:56:31;94808.03;;;18.81;77.67
29239;BME280;16267;48.194;11.546;2023-08-01T07:58:57;94830.56;;;18.87;76.38
29239;BME280;16267;48.194;11.546;2023-08-01T08:01:22;94864.00;;;18.93;75.25
29239;BME280;16267;48.194;11.546;2023-08-01T08:03:48;94848.19;;;18.97;75.03
29239;BME280;16267;48.194;11.546;2023-08-01T08:06:14;94836.09;;;18.98;73.52
29239;BME280;16267;48.194;11.546;2023-08-01T08:08:40;94841.84;;;19.06;75.56
29239;BME280;16267;48.194;11.546;2023-08-01T08:11:05;94825.59;;;19.17;76.16
29239;BME280;16267;48.194;11.546;2023-08-01T08:13:31;94828.34;;;19.23;74.15
29239;BME280;16267;48.194;11.546;2023-08-01T08:15:57;94816.31;;;19.35;75.45
29239;BME280;16267;48.194;11.546;2023-08-01T08:18:24;94816.88;;;19.45;77.73
29239;BME280;16267;48.194;11.546;2023-08-01T08:20:50;94810.00;;;19.55;77.04
29239;BME280;16267;48.194;11.546;2023-08-01T08:23:16;94828.59;;;19.62;76.70
29239;BME280;16267;48.194;11.546;2023-08-01T08:25:43;94833.59;;;19.69;76.22
29239;BME280;16267;48.194;11.546;2023-08-01T08:28:13;94825.97;;;19.73;74.83
29239;BME280;16267;48.194;11.546;2023-08-01T08:30:39;94828.91;;;19.75;73.14
29239;BME280;16267;48.194;11.546;2023-08-01T08:33:05;94832.22;;;19.91;74.67
29239;BME280;16267;48.194;11.546;2023-08-01T08:35:33;94822.09;;;20.02;75.30
29239;BME280;16267;48.194;11.546;2023-08-01T08:38:02;94827.09;;;20.10;75.01
29239;BME280;16267;48.194;11.546;2023-08-01T08:40:33;94819.16;;;20.17;74.83
29239;BME280;16267;48.194;11.546;2023-08-01T08:43:02;94835.28;;;20.21;72.00
29239;BME280;16267;48.194;11.546;2023-08-01T08:45:35;94832.06;;;20.28;72.70
29239;BME280;16267;48.194;11.546;2023-08-01T08:48:08;94835.31;;;20.32;71.71
29239;BME280;16267;48.194;11.546;2023-08-01T08:50:35;94838.53;;;20.31;70.11
29239;BME280;16267;48.194;11.546;2023-08-01T08:53:02;94844.72;;;20.37;71.50
29239;BME280;16267;48.194;11.546;2023-08-01T08:55:29;94853.41;;;20.35;70.88
29239;BME280;16267;48.194;11.546;2023-08-01T08:57:55;94843.75;;;20.40;70.72
29239;BME280;16267;48.194;11.546;2023-08-01T09:00:21;94860.13;;;20.40;70.51
29239;BME280;16267;48.194;11.546;2023-08-01T09:02:48;94853.19;;;20.50;71.49
29239;BME280;16267;48.194;11.546;2023-08-01T09:05:14;94848.28;;;20.54;71.25
29239;BME280;16267;48.194;11.546;2023-08-01T09:07:46;94833.91;;;20.54;71.90
29239;BME280;16267;48.194;11.546;2023-08-01T09:10:14;94837.09;;;20.52;71.56
29239;BME280;16267;48.194;11.546;2023-08-01T09:12:40;94851.19;;;20.50;70.67
29239;BME280;16267;48.194;11.546;2023-08-01T09:15:07;94804.88;;;20.56;71.83
29239;BME280;16267;48.194;11.546;2023-08-01T09:17:33;94854.94;;;20.53;71.09
29239;BME280;16267;48.194;11.546;2023-08-01T09:20:06;94863.66;;;20.63;72.58
29239;BME280;16267;48.194;11.546;2023-08-01T09:22:45;94864.91;;;20.62;69.13
29239;BME280;16267;48.194;11.546;2023-08-01T09:25:11;94865.38;;;20.66;68.54
29239;BME280;16267;48.194;11.546;2023-08-01T09:27:37;94866.88;;;20.72;68.93
29239;BME280;16267;48.194;11.546;2023-08-01T09:30:15;94864.91;;;20.62;64.37
29239;BME280;16267;48.194;11.546;2023-08-01T09:32:55;94874.03;;;20.64;65.66
29239;BME280;16267;48.194;11.546;2023-08-01T09:35:24;94874.56;;;20.68;66.77
29239;BME280;16267;48.194;11.546;2023-08-01T09:37:50;94885.72;;;20.65;66.51
29239;BME280;16267;48.194;11.546;2023-08-01T09:40:16;94874.81;;;20.70;66.88
29239;BME280;16267;48.194;11.546;2023-08-01T09:42:44;94886.94;;;20.64;65.40
29239;BME280;16267;48.194;11.546;2023-08-01T09:45:15;94882.47;;;20.55;64.95
29239;BME280;16267;48.194;11.546;2023-08-01T09:47:42;94880.75;;;20.69;66.47
29239;BME280;16267;48.194;11.546;2023-08-01T09:50:19;94878.28;;;20.71;66.23
29239;BME280;16267;48.194;11.546;2023-08-01T09:52:46;94879.03;;;20.71;65.51
29239;BME280;16267;48.194;11.546;2023-08-01T09:55:32;94874.31;;;20.66;64.99
29239;BME280;16267;48.194;11.546;2023-08-01T09:57:59;94881.00;;;20.65;65.02
29239;BME280;16267;48.194;11.546;2023-08-01T10:00:31;94877.03;;;20.72;65.44
29239;BME280;16267;48.194;11.546;2023-08-01T10:03:00;94882.50;;;20.78;65.90
29239;BME280;16267;48.194;11.546;2023-08-01T10:05:30;94873.56;;;20.71;64.24
29239;BME280;16267;48.194;11.546;2023-08-01T10:07:59;94908.53;;;20.73;62.99
29239;BME280;16267;48.194;11.546;2023-08-01T10:10:27;94908.50;;;20.62;63.73
29239;BME280;16267;48.194;11.546;2023-08-01T10:12:56;94927.78;;;20.53;64.39
29239;BME280;16267;48.194;11.546;2023-08-01T10:15:24;94939.63;;;20.38;67.74
29239;BME280;16267;48.194;11.546;2023-08-01T10:17:51;94922.41;;;20.10;71.15
29239;BME280;16267;48.194;11.546;2023-08-01T10:20:18;94931.31;;;20.04;71.50
29239;BME280;16267;48.194;11.546;2023-08-01T10:22:49;94945.84;;;19.90;74.17
29239;BME280;16267;48.194;11.546;2023-08-01T10:25:17;94941.34;;;19.81;74.23
29239;BME280;16267;48.194;11.546;2023-08-01T10:27:43;94941.63;;;19.57;77.50
29239;BME280;16267;48.194;11.546;2023-08-01T10:30:09;94932.81;;;19.36;79.28
29239;BME280;16267;48.194;11.546;2023-08-01T10:32:38;94940.53;;;19.12;81.91
29239;BME280;16267;48.194;11.546;2023-08-01T10:35:07;94926.03;;;19.21;81.95
29239;BME280;16267;48.194;11.546;2023-08-01T10:37:44;94930.00;;;19.25;81.33
29239;BME280;16267;48.194;11.546;2023-08-01T10:40:13;94914.78;;;19.07;84.00
29239;BME280;16267;48.194;11.546;2023-08-01T10:42:44;94902.19;;;19.10;84.31
29239;BME280;16267;48.194;11.546;2023-08-01T10:45:24;94896.31;;;19.17;83.70
29239;BME280;16267;48.194;11.546;2023-08-01T10:47:50;94898.47;;;19.07;83.84
29239;BME280;16267;48.194;11.546;2023-08-01T10:50:17;94888.38;;;19.13;83.67
29239;BME280;16267;48.194;11.546;2023-08-01T10:52:44;94876.81;;;18.92;84.90
29239;BME280;16267;48.194;11.546;2023-08-01T10:55:10;94864.03;;;18.99;85.20
29239;BME280;16267;48.194;11.546;2023-08-01T10:57:48;94859.50;;;18.90;85.54
29239;BME280;16267;48.194;11.546;2023-08-01T11:00:18;94836.13;;;19.04;84.77
29239;BME280;16267;48.194;11.546;2023-08-01T11:02:50;94806.28;;;19.09;84.38
29239;BME280;16267;48.194;11.546;2023-08-01T11:05:21;94825.56;;;19.11;83.51
29239;BME280;16267;48.194;11.546;2023-08-01T11:07:58;94839.19;;;19.17;82.66
29239;BME280;16267;48.194;11.546;2023-08-01T11:10:33;94847.31;;;19.11;82.89
29239;BME280;16267;48.194;11.546;2023-08-01T11:13:00;94859.47;;;19.16;83.28
29239;BME280;16267;48.194;11.546;2023-08-01T11:15:37;94864.34;;;19.06;81.55
29239;BME280;16267;48.194;11.546;2023-08-01T11:18:03;94872.63;;;19.23;82.52
29239;BME280;16267;48.194;11.546;2023-08-01T11:20:32;94869.16;;;19.23;83.47
29239;BME280;16267;48.194;11.546;2023-08-01T11:23:05;94882.34;;;19.35;82.89
29239;BME280;16267;48.194;11.546;2023-08-01T11:28:11;94885.41;;;19.49;82.83
29239;BME280;16267;48.194;11.546;2023-08-01T11:30:38;94885.16;;;19.47;81.69
29239;BME280;16267;48.194;11.546;2023-08-01T11:33:20;94898.03;;;19.46;80.52
29239;BME280;16267;48.194;11.546;2023-08-01T11:35:54;94888.81;;;19.38;80.27
29239;BME280;16267;48.194;11.546;2023-08-01T11:38:27;94886.84;;;19.38;80.31
29239;BME280;16267;48.194;11.546;2023-08-01T11:43:26;94894.13;;;19.21;80.24
29239;BME280;16267;48.194;11.546;2023-08-01T11:45:56;94898.84;;;19.21;80.48
29239;BME280;16267;48.194;11.546;2023-08-01T11:48:24;94902.03;;;19.19;80.28
29239;BME280;16267;48.194;11.546;2023-08-01T11:50:57;94890.34;;;19.13;81.27
29239;BME280;16267;48.194;11.546;2023-08-01T11:53:23;94877.53;;;19.19;82.55
29239;BME280;16267;48.194;11.546;2023-08-01T11:55:50;94901.97;;;19.13;84.75
29239;BME280;16267;48.194;11.546;2023-08-01T11:58:35;94909.41;;;19.13;85.74
29239;BME280;16267;48.194;11.546;2023-08-01T12:01:11;94906.81;;;19.04;87.01
29239;BME280;16267;48.194;11.546;2023-08-01T12:03:53;94907.31;;;19.02;88.58
29239;BME280;16267;48.194;11.546;2023-08-01T12:06:22;94908.84;;;19.09;87.99
29239;BME280;16267;48.194;11.546;2023-08-01T12:08:52;94908.50;;;18.96;88.50
29239;BME280;16267;48.194;11.546;2023-08-01T12:11:20;94896.69;;;18.99;89.38
29239;BME280;16267;48.194;11.546;2023-08-01T12:13:46;94911.28;;;19.01;88.71
29239;BME280;16267;48.194;11.546;2023-08-01T12:16:12;94914.56;;;19.11;89.17
29239;BME280;16267;48.194;11.546;2023-08-01T12:18:41;94920.53;;;19.15;89.16
29239;BME280;16267;48.194;11.546;2023-08-01T12:21:10;94920.78;;;19.17;87.79
29239;BME280;16267;48.194;11.546;2023-08-01T12:23:36;94943.47;;;19.08;87.08
29239;BME280;16267;48.194;11.546;2023-08-01T12:26:02;94942.06;;;19.19;87.52
29239;BME280;16267;48.194;11.546;2023-08-01T12:28:27;94939.19;;;19.28;87.51
29239;BME280;16267;48.194;11.546;2023-08-01T12:30:53;94939.22;;;19.33;86.35
29239;BME280;16267;48.194;11.546;2023-08-01T12:33:19;94934.19;;;19.21;86.66
29239;BME280;16267;48.194;11.546;2023-08-01T12:35:44;94934.53;;;19.34;87.09
29239;BME280;16267;48.194;11.546;2023-08-01T12:38:10;94923.47;;;19.43;87.52
29239;BME280;16267;48.194;11.546;2023-08-01T12:40:36;94933.66;;;19.48;86.40
29239;BME280;16267;48.194;11.546;2023-08-01T12:43:02;94932.97;;;19.59;86.30
29239;BME280;16267;48.194;11.546;2023-08-01T12:45:28;94926.53;;;19.56;84.18
29239;BME280;16267;48.194;11.546;2023-08-01T12:47:54;94916.53;;;19.74;84.96
29239;BME280;16267;48.194;11.546;2023-08-01T12:50:19;94917.78;;;19.78;85.02
29239;BME280;16267;48.194;11.546;2023-08-01T12:52:45;94911.06;;;19.68;84.24
29239;BME280;16267;48.194;11.546;2023-08-01T12:55:11;94916.78;;;19.76;83.62